Winslow, Nebraska
Current Conditions -  °F | °C
As of 9:15 PM on Thursday 27 Nov 2014 (Local Time) from KFET Reporting Station
Clear Clear  
Wind Chill: 13°   Ceiling: Unl
Heat Index: 25°   Visibility: 10mi
Dew Point: 17°   Wind: 14mph
Humidity: 71%   Direction: 140°SE
Pressure: 30.16"   Gusts: NA
Location:  41.61°N, 96.5°W
Report Text: KFET 280315Z AUTO 14012KT 10SM CLR M04/M08 A3016 RMK AO2 T10401085
Loading
Personal Weather Stations






























Interactive Weather Map New forecast layout! Learn more

10-Day Weather Forecast

Advertisements
Track Severe Weather on mobile